createdAt,value
2023-04-26T00:00:30.455Z,63.78
2023-04-26T00:03:15.983Z,64.40
2023-04-26T00:06:06.473Z,64.15
2023-04-26T00:08:51.967Z,65.53
2023-04-26T00:11:37.673Z,64.92
2023-04-26T00:14:22.962Z,64.03
2023-04-26T00:17:08.084Z,64.71
2023-04-26T00:19:53.341Z,64.78
2023-04-26T00:22:39.760Z,64.75
2023-04-26T00:25:25.210Z,65.25
2023-04-26T00:28:10.550Z,65.27
2023-04-26T00:30:57.737Z,65.49
2023-04-26T00:33:44.137Z,65.75
2023-04-26T00:36:29.732Z,66.49
2023-04-26T00:39:15.286Z,67.12
2023-04-26T00:42:00.345Z,67.35
2023-04-26T00:44:45.810Z,66.57
2023-04-26T00:47:31.155Z,67.35
2023-04-26T00:50:16.747Z,67.60
2023-04-26T00:53:02.813Z,67.54
2023-04-26T00:55:49.164Z,67.30
2023-04-26T00:58:34.509Z,67.30
2023-04-26T01:01:20.161Z,67.21
2023-04-26T01:04:06.198Z,67.83
2023-04-26T01:06:51.913Z,68.43
2023-04-26T01:09:37.011Z,67.98
2023-04-26T01:12:24.267Z,67.84
2023-04-26T01:15:10.398Z,68.18
2023-04-26T01:17:57.432Z,67.93
2023-04-26T01:20:43.235Z,68.46
2023-04-26T01:23:28.749Z,68.87
2023-04-26T01:26:14.189Z,69.05
2023-04-26T01:28:59.362Z,69.06
2023-04-26T01:31:45.812Z,68.63
2023-04-26T01:34:33.162Z,68.95
2023-04-26T01:37:18.654Z,69.38
2023-04-26T01:40:06.986Z,69.24
2023-04-26T01:42:52.480Z,70.14
2023-04-26T01:45:38.841Z,70.01
2023-04-26T01:48:42.738Z,70.15
2023-04-26T01:51:28.291Z,69.97
2023-04-26T01:54:13.420Z,70.85
2023-04-26T01:56:58.913Z,70.25
2023-04-26T01:59:46.375Z,70.93
2023-04-26T02:02:31.446Z,70.92
2023-04-26T02:05:17.350Z,70.89
2023-04-26T02:08:02.780Z,71.30
2023-04-26T02:10:47.944Z,71.55
2023-04-26T02:13:33.390Z,71.41
2023-04-26T02:16:18.914Z,72.09
2023-04-26T02:19:05.244Z,71.85
2023-04-26T02:21:54.695Z,71.64
2023-04-26T02:24:40.199Z,71.81
2023-04-26T02:27:25.433Z,72.14
2023-04-26T02:30:11.173Z,72.67
2023-04-26T02:32:57.150Z,72.53
2023-04-26T02:35:42.550Z,72.10
2023-04-26T02:38:28.985Z,73.17
2023-04-26T02:41:15.732Z,73.22
2023-04-26T02:44:00.902Z,72.98
2023-04-26T02:46:46.218Z,73.06
2023-04-26T02:49:31.642Z,73.47
2023-04-26T02:52:17.445Z,73.82
2023-04-26T02:55:04.436Z,73.70
2023-04-26T02:57:49.694Z,74.02
2023-04-26T03:00:34.798Z,73.84
2023-04-26T03:03:20.883Z,73.84
2023-04-26T03:06:06.675Z,74.29
2023-04-26T03:08:52.454Z,74.37
2023-04-26T03:11:38.021Z,74.30
2023-04-26T03:14:23.438Z,73.97
2023-04-26T03:17:08.875Z,74.45
2023-04-26T03:19:55.017Z,75.30
2023-04-26T03:22:40.352Z,74.65
2023-04-26T03:25:26.749Z,74.70
2023-04-26T03:28:12.110Z,75.07
2023-04-26T03:30:57.546Z,75.04
2023-04-26T03:33:42.860Z,75.44
2023-04-26T03:36:31.048Z,76.16
2023-04-26T03:39:16.614Z,75.78
2023-04-26T03:42:01.853Z,76.33
2023-04-26T03:44:46.950Z,75.70
2023-04-26T03:47:32.092Z,76.28
2023-04-26T03:50:17.655Z,76.63
2023-04-26T03:53:04.365Z,76.61
2023-04-26T03:55:50.121Z,76.23
2023-04-26T03:58:36.099Z,76.59
2023-04-26T04:01:21.237Z,76.66
2023-04-26T04:04:06.769Z,76.19
2023-04-26T04:06:52.438Z,76.88
2023-04-26T04:09:37.810Z,76.54
2023-04-26T04:12:22.968Z,76.77
2023-04-26T04:15:09.591Z,76.33
2023-04-26T04:18:00.345Z,76.32
2023-04-26T04:20:46.194Z,76.47
2023-04-26T04:23:31.771Z,75.87
2023-04-26T04:26:20.968Z,76.20
2023-04-26T04:29:08.865Z,75.67
2023-04-26T04:31:56.464Z,74.99
2023-04-26T04:34:41.602Z,74.36
2023-04-26T04:37:28.645Z,74.45
2023-04-26T04:40:14.245Z,74.56
2023-04-26T04:43:03.273Z,74.44
2023-04-26T04:45:50.141Z,74.70
2023-04-26T04:48:38.807Z,74.32
2023-04-26T04:51:24.332Z,74.46
2023-04-26T04:54:19.450Z,74.06
2023-04-26T04:57:06.609Z,73.97
2023-04-26T04:59:52.075Z,73.85
2023-04-26T05:02:37.839Z,73.70
2023-04-26T05:05:23.952Z,74.45
2023-04-26T05:08:09.170Z,73.88
2023-04-26T05:10:55.612Z,73.40
2023-04-26T05:13:40.878Z,72.64
2023-04-26T05:16:26.139Z,72.33
2023-04-26T05:19:13.274Z,72.17
2023-04-26T05:21:59.127Z,72.36
2023-04-26T05:24:47.816Z,72.62
2023-04-26T05:27:33.762Z,72.15
2023-04-26T05:30:41.361Z,71.96
2023-04-26T05:33:53.013Z,71.24
2023-04-26T05:36:47.656Z,70.94
2023-04-26T05:39:33.129Z,70.94
2023-04-26T05:42:18.553Z,70.63
2023-04-26T05:45:04.765Z,70.46
2023-04-26T05:47:51.736Z,70.20
2023-04-26T05:50:38.907Z,69.67
2023-04-26T05:53:25.831Z,68.95
2023-04-26T05:56:10.976Z,68.80
2023-04-26T05:58:56.379Z,69.64
2023-04-26T06:01:41.785Z,69.98
2023-04-26T06:04:27.463Z,68.91
2023-04-26T06:07:26.648Z,67.84
2023-04-26T06:10:13.332Z,68.53
2023-04-26T06:12:59.767Z,67.53
2023-04-26T06:15:47.501Z,68.07
2023-04-26T06:18:32.482Z,66.69
2023-04-26T06:21:18.042Z,66.02
2023-04-26T06:24:03.840Z,65.03
2023-04-26T06:26:48.987Z,65.60
2023-04-26T06:29:34.683Z,64.77
2023-04-26T06:32:19.804Z,64.54
2023-04-26T06:35:05.546Z,64.42
2023-04-26T06:37:50.551Z,64.20
2023-04-26T06:40:39.193Z,64.25
2023-04-26T06:43:24.789Z,63.92
2023-04-26T06:46:20.105Z,63.01
2023-04-26T06:49:11.647Z,63.42
2023-04-26T06:51:57.440Z,63.27
2023-04-26T06:54:50.101Z,63.20
2023-04-26T06:57:42.044Z,62.51
2023-04-26T07:00:28.070Z,62.21
2023-04-26T07:03:13.476Z,61.54
2023-04-26T07:05:59.071Z,61.67
2023-04-26T07:08:44.292Z,62.18
2023-04-26T07:11:30.306Z,60.83
2023-04-26T07:14:15.590Z,61.01
2023-04-26T07:17:01.168Z,59.77
2023-04-26T07:19:46.571Z,59.78
2023-04-26T07:22:31.921Z,59.39
2023-04-26T07:25:17.970Z,58.48
2023-04-26T07:28:03.498Z,58.49
2023-04-26T07:30:49.007Z,58.03
2023-04-26T07:33:34.148Z,59.31
2023-04-26T07:36:19.530Z,59.00
2023-04-26T07:39:09.777Z,57.64
2023-04-26T07:41:55.502Z,57.50
2023-04-26T07:44:40.810Z,57.46
2023-04-26T07:47:26.150Z,57.01
2023-04-26T07:50:16.820Z,56.09
2023-04-26T07:53:12.385Z,56.25
2023-04-26T07:55:57.682Z,54.38
2023-04-26T07:58:43.149Z,53.17
2023-04-26T08:01:28.297Z,53.94
2023-04-26T08:04:13.706Z,51.95
2023-04-26T08:06:59.256Z,52.44
2023-04-26T08:09:49.658Z,53.51
2023-04-26T08:12:37.111Z,54.14
2023-04-26T08:15:23.308Z,56.00
2023-04-26T08:18:08.888Z,57.19
2023-04-26T08:20:55.285Z,57.21
2023-04-26T08:23:40.680Z,57.24
2023-04-26T08:26:25.809Z,56.30
2023-04-26T08:29:11.054Z,55.68
2023-04-26T08:31:56.631Z,54.55
2023-04-26T08:34:42.526Z,56.15
2023-04-26T08:37:31.004Z,57.56
2023-04-26T08:40:22.710Z,58.37
2023-04-26T08:43:10.814Z,57.84
2023-04-26T08:45:55.998Z,56.94
2023-04-26T08:48:41.268Z,55.87
2023-04-26T08:51:27.410Z,54.48
2023-04-26T08:54:14.864Z,52.37
2023-04-26T08:57:01.774Z,50.14
2023-04-26T08:59:47.825Z,48.29
2023-04-26T09:02:34.431Z,48.54
2023-04-26T09:05:24.797Z,50.59
2023-04-26T09:08:16.110Z,50.41
2023-04-26T09:11:03.277Z,49.67
2023-04-26T09:13:48.532Z,50.09
2023-04-26T09:16:37.086Z,50.18
2023-04-26T09:19:39.314Z,49.27
2023-04-26T09:22:36.046Z,47.48
2023-04-26T09:25:29.430Z,48.70
2023-04-26T09:28:22.744Z,50.69
2023-04-26T09:31:08.212Z,49.10
2023-04-26T09:34:08.009Z,47.28
2023-04-26T09:36:57.309Z,47.32
2023-04-26T09:39:42.918Z,46.67
2023-04-26T09:42:28.077Z,46.40
2023-04-26T09:45:13.728Z,47.37
2023-04-26T09:48:32.958Z,47.14
2023-04-26T09:51:18.324Z,46.59
2023-04-26T09:54:03.494Z,45.06
2023-04-26T09:57:01.631Z,45.30
2023-04-26T09:59:55.026Z,46.17
2023-04-26T10:02:41.405Z,44.61
2023-04-26T10:05:27.125Z,44.75
2023-04-26T10:08:12.360Z,44.02
2023-04-26T10:10:57.709Z,44.23
2023-04-26T10:13:44.646Z,44.29
2023-04-26T10:16:31.247Z,42.99
2023-04-26T10:19:16.843Z,42.71
2023-04-26T10:22:06.969Z,41.71
2023-04-26T10:24:54.142Z,42.15
2023-04-26T10:27:45.385Z,43.04
2023-04-26T10:30:32.265Z,43.69
2023-04-26T10:33:17.898Z,43.35
2023-04-26T10:36:05.588Z,44.09
2023-04-26T10:39:19.386Z,44.65
2023-04-26T10:42:25.864Z,45.55
2023-04-26T10:45:29.001Z,43.96
2023-04-26T10:48:21.906Z,44.10
2023-04-26T10:51:13.333Z,43.75
2023-04-26T10:53:59.393Z,45.45
2023-04-26T10:56:47.562Z,46.14
2023-04-26T10:59:43.509Z,46.46
2023-04-26T11:02:53.365Z,46.70
2023-04-26T11:05:54.165Z,47.75
2023-04-26T11:08:39.599Z,47.22
2023-04-26T11:11:27.292Z,45.57
2023-04-26T11:14:14.279Z,45.29
2023-04-26T11:17:03.543Z,43.57
2023-04-26T11:19:49.140Z,42.71
2023-04-26T11:22:34.795Z,42.28
2023-04-26T11:25:20.055Z,41.39
2023-04-26T11:28:06.894Z,40.44
2023-04-26T11:30:52.707Z,40.44
2023-04-26T11:33:37.915Z,40.29
2023-04-26T11:36:24.233Z,40.76
2023-04-26T11:39:09.590Z,41.43
2023-04-26T11:42:08.748Z,41.57
2023-04-26T11:44:57.349Z,42.20
2023-04-26T11:47:44.165Z,43.13
2023-04-26T11:50:31.237Z,43.48
2023-04-26T11:53:17.303Z,43.52
2023-04-26T11:56:02.370Z,42.78
2023-04-26T11:58:52.007Z,42.58
2023-04-26T12:01:38.058Z,41.08
2023-04-26T12:04:30.286Z,40.29
2023-04-26T12:07:18.741Z,39.05
2023-04-26T12:10:21.793Z,39.59
2023-04-26T12:13:07.334Z,39.97
2023-04-26T12:15:52.739Z,39.92
2023-04-26T12:18:38.236Z,39.63
2023-04-26T12:21:24.736Z,39.63
2023-04-26T12:24:26.800Z,40.23
2023-04-26T12:27:20.536Z,41.04
2023-04-26T12:30:07.259Z,41.85
2023-04-26T12:32:52.504Z,43.22
2023-04-26T12:35:37.975Z,43.48
2023-04-26T12:38:23.341Z,43.40
2023-04-26T12:41:08.687Z,44.47
2023-04-26T12:43:53.831Z,43.94
2023-04-26T12:46:39.515Z,44.12
2023-04-26T12:49:25.042Z,43.92
2023-04-26T12:52:10.438Z,42.63
2023-04-26T12:54:55.503Z,41.81
2023-04-26T12:57:42.482Z,41.38
2023-04-26T13:00:28.271Z,41.64
2023-04-26T13:03:14.657Z,42.00
2023-04-26T13:06:00.585Z,41.33
2023-04-26T13:08:45.961Z,39.14
2023-04-26T13:11:31.224Z,38.57
2023-04-26T13:14:16.414Z,37.41
2023-04-26T13:17:01.850Z,36.96
2023-04-26T13:19:47.124Z,37.65
2023-04-26T13:22:33.551Z,37.38
2023-04-26T13:25:19.244Z,36.95
2023-04-26T13:28:04.759Z,36.95
2023-04-26T13:30:50.118Z,37.03
2023-04-26T13:33:35.524Z,36.81
2023-04-26T13:36:21.318Z,37.09
2023-04-26T13:39:07.259Z,37.27
2023-04-26T13:41:52.675Z,37.90
2023-04-26T13:44:37.863Z,38.62
2023-04-26T13:47:23.110Z,39.18
2023-04-26T13:50:08.472Z,39.89
2023-04-26T13:52:53.835Z,41.45
2023-04-26T13:55:39.078Z,40.85
2023-04-26T13:58:27.143Z,40.00
2023-04-26T14:01:17.069Z,39.89
2023-04-26T14:04:02.973Z,39.57
2023-04-26T14:06:48.450Z,39.36
2023-04-26T14:09:33.601Z,39.81
2023-04-26T14:12:19.000Z,40.31
2023-04-26T14:15:06.069Z,40.70
2023-04-26T14:17:51.605Z,40.54
2023-04-26T14:20:36.765Z,39.94
2023-04-26T14:23:22.031Z,39.71
2023-04-26T14:26:07.323Z,40.09
2023-04-26T14:28:52.752Z,39.78
2023-04-26T14:31:38.156Z,40.48
2023-04-26T14:34:23.614Z,39.37
2023-04-26T14:37:09.058Z,38.82
2023-04-26T14:39:54.638Z,39.39
2023-04-26T14:42:45.811Z,38.26
2023-04-26T14:45:43.883Z,38.91
2023-04-26T14:48:29.716Z,39.43
2023-04-26T14:51:15.402Z,39.58
2023-04-26T14:54:00.779Z,39.32
2023-04-26T14:56:46.308Z,39.89
2023-04-26T14:59:31.450Z,40.14
2023-04-26T15:02:17.038Z,40.71
2023-04-26T15:05:06.007Z,39.25
2023-04-26T15:07:52.072Z,38.74
2023-04-26T15:10:37.728Z,39.00
2023-04-26T15:13:23.105Z,38.25
2023-04-26T15:16:08.629Z,38.90
2023-04-26T15:18:56.920Z,36.94
2023-04-26T15:21:42.549Z,37.62
2023-04-26T15:24:27.837Z,37.98
2023-04-26T15:27:13.143Z,38.06
2023-04-26T15:29:58.751Z,37.57
2023-04-26T15:32:47.872Z,36.96
2023-04-26T15:35:33.749Z,36.90
2023-04-26T15:38:19.005Z,37.05
2023-04-26T15:41:04.518Z,37.51
2023-04-26T15:43:55.255Z,37.29
2023-04-26T15:46:40.722Z,38.07
2023-04-26T15:49:26.207Z,37.90
2023-04-26T15:52:11.927Z,38.15
2023-04-26T15:54:57.072Z,38.17
2023-04-26T15:57:42.662Z,38.60
2023-04-26T16:00:28.417Z,39.57
2023-04-26T16:03:14.025Z,39.27
2023-04-26T16:05:59.246Z,39.22
2023-04-26T16:08:45.182Z,39.46
2023-04-26T16:11:31.384Z,39.68
2023-04-26T16:14:16.491Z,39.40
2023-04-26T16:17:03.919Z,39.85
2023-04-26T16:19:49.336Z,40.29
2023-04-26T16:22:35.426Z,41.01
2023-04-26T16:25:22.266Z,41.04
2023-04-26T16:28:11.780Z,40.56
2023-04-26T16:30:57.542Z,40.71
2023-04-26T16:33:43.091Z,40.96
2023-04-26T16:36:28.485Z,41.28
2023-04-26T16:39:15.761Z,41.59
2023-04-26T16:42:02.189Z,41.61
2023-04-26T16:44:47.527Z,40.50
2023-04-26T16:47:34.017Z,40.27
2023-04-26T16:50:19.184Z,40.20
2023-04-26T16:53:04.580Z,40.25
2023-04-26T16:55:51.118Z,40.95
2023-04-26T16:58:36.761Z,40.57
2023-04-26T17:01:22.416Z,40.45
2023-04-26T17:04:08.208Z,40.41
2023-04-26T17:06:54.866Z,40.47
2023-04-26T17:09:40.421Z,40.68
2023-04-26T17:12:25.663Z,41.08
2023-04-26T17:15:11.887Z,41.01
2023-04-26T17:17:57.420Z,41.27
2023-04-26T17:20:42.550Z,41.20
2023-04-26T17:23:28.426Z,41.35
2023-04-26T17:26:13.599Z,42.19
2023-04-26T17:28:59.252Z,42.17
2023-04-26T17:31:44.598Z,42.20
2023-04-26T17:34:30.041Z,42.67
2023-04-26T17:37:15.588Z,43.09
2023-04-26T17:40:00.916Z,43.82
2023-04-26T17:42:46.757Z,43.27
2023-04-26T17:45:32.295Z,43.46
2023-04-26T17:48:17.454Z,43.66
2023-04-26T17:51:03.249Z,44.13
2023-04-26T17:53:48.607Z,44.27
2023-04-26T17:56:33.923Z,44.71
2023-04-26T17:59:18.989Z,44.34
2023-04-26T18:02:04.511Z,44.61
2023-04-26T18:04:49.997Z,44.92
2023-04-26T18:07:35.944Z,45.25
2023-04-26T18:10:21.845Z,45.56
2023-04-26T18:13:07.234Z,46.32
2023-04-26T18:15:54.684Z,46.11
2023-04-26T18:18:40.342Z,46.66
2023-04-26T18:21:26.434Z,46.79
2023-04-26T18:24:11.884Z,46.70
2023-04-26T18:26:57.104Z,47.39
2023-04-26T18:29:42.646Z,46.60
2023-04-26T18:32:28.182Z,46.96
2023-04-26T18:35:13.511Z,47.50
2023-04-26T18:37:58.898Z,47.86
2023-04-26T18:40:45.346Z,47.80
2023-04-26T18:43:30.922Z,48.20
2023-04-26T18:46:16.281Z,48.73
2023-04-26T18:49:01.553Z,48.54
2023-04-26T18:51:46.963Z,48.44
2023-04-26T18:54:33.069Z,48.34
2023-04-26T18:57:22.140Z,48.80
2023-04-26T19:00:08.275Z,48.48
2023-04-26T19:02:54.681Z,48.76
2023-04-26T19:05:43.234Z,48.87
2023-04-26T19:08:28.316Z,49.03
2023-04-26T19:11:14.028Z,49.17
2023-04-26T19:13:59.177Z,49.99
2023-04-26T19:16:44.918Z,49.64
2023-04-26T19:19:30.540Z,49.93
2023-04-26T19:22:16.133Z,50.08
2023-04-26T19:25:02.287Z,50.12
2023-04-26T19:27:47.352Z,50.54
2023-04-26T19:30:32.863Z,50.53
2023-04-26T19:33:17.945Z,51.41
2023-04-26T19:36:03.513Z,50.93
2023-04-26T19:38:48.979Z,51.06
2023-04-26T19:41:34.175Z,51.24
2023-04-26T19:44:22.698Z,51.19
2023-04-26T19:47:08.933Z,51.26
2023-04-26T19:49:55.485Z,51.36
2023-04-26T19:52:40.986Z,51.28
2023-04-26T19:55:29.314Z,51.27
2023-04-26T19:58:14.495Z,51.61
2023-04-26T20:00:59.655Z,51.94
2023-04-26T20:03:45.224Z,52.15
2023-04-26T20:06:31.174Z,51.67
2023-04-26T20:09:16.671Z,52.08
2023-04-26T20:12:01.716Z,52.24
2023-04-26T20:14:47.591Z,52.82
2023-04-26T20:17:33.039Z,52.50
2023-04-26T20:20:18.630Z,52.43
2023-04-26T20:23:03.841Z,52.14
2023-04-26T20:25:51.100Z,52.38
2023-04-26T20:28:39.346Z,52.10
2023-04-26T20:31:25.651Z,52.23
2023-04-26T20:34:10.702Z,53.25
2023-04-26T20:36:55.910Z,52.89
2023-04-26T20:39:41.651Z,52.74
2023-04-26T20:42:27.693Z,53.01
2023-04-26T20:45:13.283Z,52.75
2023-04-26T20:47:58.422Z,52.52
2023-04-26T20:50:43.864Z,52.52
2023-04-26T20:53:29.338Z,52.77
2023-04-26T20:56:14.571Z,52.80
2023-04-26T20:58:59.845Z,53.38
2023-04-26T21:01:45.295Z,53.75
2023-04-26T21:04:31.000Z,53.09
2023-04-26T21:07:16.228Z,54.26
2023-04-26T21:10:01.655Z,54.45
2023-04-26T21:12:47.143Z,53.97
2023-04-26T21:15:33.315Z,53.48
2023-04-26T21:18:18.942Z,54.36
2023-04-26T21:21:04.158Z,55.03
2023-04-26T21:23:49.404Z,54.83
2023-04-26T21:26:34.705Z,54.70
2023-04-26T21:29:20.036Z,55.21
2023-04-26T21:32:05.430Z,55.01
2023-04-26T21:34:50.929Z,55.25
2023-04-26T21:37:36.480Z,55.58
2023-04-26T21:40:21.820Z,55.18
2023-04-26T21:43:10.150Z,54.95
2023-04-26T21:45:58.662Z,55.52
2023-04-26T21:48:44.396Z,56.31
2023-04-26T21:51:29.801Z,55.90
2023-04-26T21:54:15.221Z,55.38
2023-04-26T21:57:01.459Z,56.29
2023-04-26T21:59:47.112Z,55.84
2023-04-26T22:02:32.646Z,55.96
2023-04-26T22:05:18.080Z,55.90
2023-04-26T22:08:03.383Z,55.74
2023-04-26T22:10:48.427Z,56.13
2023-04-26T22:13:33.592Z,56.23
2023-04-26T22:16:18.826Z,55.95
2023-04-26T22:19:04.173Z,56.12
2023-04-26T22:21:49.547Z,56.49
2023-04-26T22:24:34.664Z,55.46
2023-04-26T22:27:20.407Z,55.63
2023-04-26T22:30:23.082Z,55.77
2023-04-26T22:33:12.045Z,55.83
2023-04-26T22:35:58.092Z,55.86
2023-04-26T22:38:43.100Z,56.19
2023-04-26T22:41:28.465Z,56.12
2023-04-26T22:44:14.954Z,55.74
2023-04-26T22:47:00.462Z,55.69
2023-04-26T22:49:45.754Z,55.68
2023-04-26T22:52:32.309Z,56.02
2023-04-26T22:55:17.931Z,55.44
2023-04-26T22:58:03.272Z,55.83
2023-04-26T23:00:48.443Z,55.95
2023-04-26T23:03:37.054Z,55.80
2023-04-26T23:06:22.379Z,56.34
2023-04-26T23:09:07.690Z,56.30
2023-04-26T23:11:53.188Z,56.60
2023-04-26T23:14:38.404Z,56.86
2023-04-26T23:17:25.585Z,56.71
2023-04-26T23:20:13.801Z,56.08
2023-04-26T23:22:59.200Z,55.87
2023-04-26T23:25:44.700Z,56.62
2023-04-26T23:28:30.253Z,57.01
2023-04-26T23:31:15.751Z,56.96
2023-04-26T23:34:00.978Z,57.57
2023-04-26T23:36:46.599Z,57.43
2023-04-26T23:39:31.833Z,56.73
2023-04-26T23:42:17.285Z,57.30
2023-04-26T23:45:03.653Z,57.04
2023-04-26T23:47:49.326Z,57.75
2023-04-26T23:50:34.246Z,58.10
2023-04-26T23:53:19.596Z,58.04
2023-04-26T23:56:06.586Z,57.69
2023-04-26T23:58:51.759Z,58.31
